createdAt,value
2018-12-09T00:01:08.972Z,7.70
2018-12-09T00:03:36.466Z,7.70
2018-12-09T00:06:04.077Z,7.70
2018-12-09T00:08:31.562Z,7.80
2018-12-09T00:10:59.081Z,7.80
2018-12-09T00:13:26.571Z,7.80
2018-12-09T00:15:54.092Z,7.90
2018-12-09T00:18:21.586Z,7.90
2018-12-09T00:20:49.106Z,8.00
2018-12-09T00:23:16.638Z,8.10
2018-12-09T00:25:44.238Z,8.20
2018-12-09T00:28:11.738Z,8.30
2018-12-09T00:30:39.259Z,8.40
2018-12-09T00:33:06.747Z,8.40
2018-12-09T00:35:34.575Z,8.50
2018-12-09T00:38:02.066Z,8.50
2018-12-09T00:40:29.586Z,8.50
2018-12-09T00:42:57.078Z,8.50
2018-12-09T00:45:24.599Z,8.60
2018-12-09T00:47:52.091Z,8.70
2018-12-09T00:50:19.611Z,8.60
2018-12-09T00:52:47.103Z,8.60
2018-12-09T00:55:14.626Z,8.50
2018-12-09T00:57:42.120Z,8.40
2018-12-09T01:00:11.364Z,8.40
2018-12-09T01:02:38.971Z,8.30
2018-12-09T01:05:06.576Z,8.30
2018-12-09T01:07:34.066Z,8.20
2018-12-09T01:10:01.583Z,8.20
2018-12-09T01:12:29.075Z,8.20
2018-12-09T01:14:56.590Z,8.20
2018-12-09T01:17:24.078Z,8.10
2018-12-09T01:19:51.599Z,8.10
2018-12-09T01:22:19.171Z,8.00
2018-12-09T01:24:47.134Z,7.90
2018-12-09T01:27:14.628Z,7.70
2018-12-09T01:29:42.159Z,7.70
2018-12-09T01:32:09.876Z,7.70
2018-12-09T01:34:37.403Z,7.60
2018-12-09T01:37:04.895Z,7.60
2018-12-09T01:39:32.418Z,7.50
2018-12-09T01:41:59.925Z,7.50
2018-12-09T01:44:27.531Z,7.50
2018-12-09T01:46:55.027Z,7.50
2018-12-09T01:49:22.552Z,7.50
2018-12-09T01:51:50.057Z,7.50
2018-12-09T01:54:17.994Z,7.50
2018-12-09T01:56:45.487Z,7.60
2018-12-09T01:59:13.107Z,7.70
2018-12-09T02:01:40.690Z,7.80
2018-12-09T02:04:08.183Z,7.80
2018-12-09T02:06:35.798Z,7.80
2018-12-09T02:09:04.758Z,7.80
2018-12-09T02:11:32.275Z,7.80
2018-12-09T02:13:59.763Z,7.90
2018-12-09T02:16:27.291Z,7.90
2018-12-09T02:21:54.034Z,8.00
2018-12-09T02:24:21.846Z,8.00
2018-12-09T02:26:49.460Z,8.00
2018-12-09T02:29:16.962Z,8.10
2018-12-09T02:31:44.487Z,8.10
2018-12-09T02:34:12.067Z,8.20
2018-12-09T02:36:39.896Z,8.30
2018-12-09T02:39:07.674Z,8.30
2018-12-09T02:41:35.199Z,8.30
2018-12-09T02:44:02.779Z,8.40
2018-12-09T02:46:30.311Z,8.50
2018-12-09T02:48:57.806Z,8.60
2018-12-09T02:51:25.414Z,8.70
2018-12-09T02:53:52.988Z,8.70
2018-12-09T02:56:20.515Z,8.70
2018-12-09T02:58:48.434Z,8.70
2018-12-09T03:01:16.039Z,8.70
2018-12-09T03:03:43.539Z,8.70
2018-12-09T03:06:11.071Z,8.70
2018-12-09T03:08:38.570Z,8.70
2018-12-09T03:11:06.507Z,8.70
2018-12-09T03:13:34.001Z,8.70
2018-12-09T03:16:01.531Z,8.70
2018-12-09T03:18:29.028Z,8.60
2018-12-09T03:20:56.662Z,8.60
2018-12-09T03:23:24.378Z,8.60
2018-12-09T03:25:51.909Z,8.50
2018-12-09T03:28:19.403Z,8.50
2018-12-09T03:30:46.935Z,8.40
2018-12-09T03:33:14.546Z,8.40
2018-12-09T03:35:42.187Z,8.40
2018-12-09T03:38:09.767Z,8.50
2018-12-09T03:40:37.383Z,8.60
2018-12-09T03:43:04.886Z,8.50
2018-12-09T03:45:32.409Z,8.50
2018-12-09T03:48:00.122Z,8.50
2018-12-09T03:50:27.624Z,8.10
2018-12-09T03:52:55.150Z,7.60
2018-12-09T03:55:22.767Z,7.30
2018-12-09T03:57:50.266Z,7.00
2018-12-09T04:00:17.758Z,6.80
2018-12-09T04:02:45.282Z,6.80
2018-12-09T04:05:12.859Z,6.80
2018-12-09T04:07:40.386Z,6.80
2018-12-09T04:10:07.883Z,6.80
2018-12-09T04:12:35.827Z,6.80
2018-12-09T04:15:03.319Z,6.80
2018-12-09T04:17:30.859Z,6.80
2018-12-09T04:19:58.355Z,6.80
2018-12-09T04:22:25.881Z,6.80
2018-12-09T04:24:53.486Z,6.90
2018-12-09T04:27:21.015Z,6.90
2018-12-09T04:29:48.615Z,7.00
2018-12-09T04:32:16.139Z,7.00
2018-12-09T04:34:43.634Z,7.10
2018-12-09T04:37:11.475Z,7.10
2018-12-09T04:39:38.971Z,7.10
2018-12-09T04:42:06.570Z,7.10
2018-12-09T04:44:34.639Z,7.10
2018-12-09T04:47:02.168Z,7.10
2018-12-09T04:49:29.778Z,7.20
2018-12-09T04:51:57.376Z,7.20
2018-12-09T04:54:24.879Z,7.20
2018-12-09T04:56:52.398Z,7.30
2018-12-09T04:59:20.347Z,7.30
2018-12-09T05:01:47.946Z,7.30
2018-12-09T05:04:15.517Z,7.40
2018-12-09T05:06:43.042Z,7.40
2018-12-09T05:09:10.539Z,7.40
2018-12-09T05:11:38.026Z,7.50
2018-12-09T05:14:05.863Z,7.50
2018-12-09T05:16:33.358Z,7.50
2018-12-09T05:19:00.887Z,7.50
2018-12-09T05:21:28.378Z,7.50
2018-12-09T05:23:55.911Z,7.50
2018-12-09T05:26:23.714Z,7.50
2018-12-09T05:28:51.233Z,7.50
2018-12-09T05:31:18.726Z,7.50
2018-12-09T05:33:46.247Z,7.50
2018-12-09T05:36:13.746Z,7.50
2018-12-09T05:38:41.682Z,7.50
2018-12-09T05:41:09.170Z,7.50
2018-12-09T05:43:36.701Z,7.50
2018-12-09T05:46:04.282Z,7.50
2018-12-09T05:48:31.918Z,7.40
2018-12-09T05:50:59.833Z,7.40
2018-12-09T05:53:27.367Z,7.30
2018-12-09T05:55:54.868Z,7.30
2018-12-09T05:58:24.378Z,7.20
2018-12-09T06:00:51.870Z,7.30
2018-12-09T06:03:19.958Z,7.20
2018-12-09T06:05:47.455Z,7.20
2018-12-09T06:08:14.986Z,7.30
2018-12-09T06:10:42.482Z,7.20
2018-12-09T06:13:10.012Z,7.30
2018-12-09T06:15:37.511Z,7.20
2018-12-09T06:18:05.040Z,7.20
2018-12-09T06:20:32.819Z,7.20
2018-12-09T06:23:00.310Z,7.10
2018-12-09T06:25:27.837Z,7.10
2018-12-09T06:27:55.331Z,7.10
2018-12-09T06:30:22.854Z,7.10
2018-12-09T06:32:50.355Z,7.20
2018-12-09T06:35:17.878Z,7.10
2018-12-09T06:37:45.374Z,7.20
2018-12-09T06:40:12.972Z,7.10
2018-12-09T06:42:40.475Z,7.10
2018-12-09T06:45:08.086Z,7.10
2018-12-09T06:47:35.583Z,7.10
2018-12-09T06:50:03.766Z,7.10
2018-12-09T06:52:31.254Z,7.10
2018-12-09T06:54:58.783Z,7.10
2018-12-09T06:57:26.354Z,7.10
2018-12-09T06:59:53.892Z,7.10
2018-12-09T07:02:21.398Z,7.20
2018-12-09T07:04:48.891Z,7.20
2018-12-09T07:07:16.410Z,7.20
2018-12-09T07:09:43.914Z,7.30
2018-12-09T07:12:11.443Z,7.30
2018-12-09T07:14:38.932Z,7.30
2018-12-09T07:17:06.459Z,7.40
2018-12-09T07:19:33.955Z,7.40
2018-12-09T07:22:01.479Z,7.40
2018-12-09T07:24:28.972Z,7.40
2018-12-09T07:26:56.488Z,7.40
2018-12-09T07:29:24.090Z,7.50
2018-12-09T07:31:51.615Z,7.60
2018-12-09T07:34:19.527Z,7.60
2018-12-09T07:36:47.050Z,7.60
2018-12-09T07:39:14.546Z,7.70
2018-12-09T07:41:42.063Z,7.70
2018-12-09T07:44:09.567Z,7.70
2018-12-09T07:46:37.082Z,7.80
2018-12-09T07:49:04.584Z,7.80
2018-12-09T07:51:32.107Z,7.80
2018-12-09T07:53:59.598Z,7.90
2018-12-09T07:56:27.111Z,7.90
2018-12-09T07:58:54.602Z,7.90
2018-12-09T08:01:22.144Z,8.00
2018-12-09T08:03:49.634Z,8.00
2018-12-09T08:06:17.123Z,8.00
2018-12-09T08:08:44.633Z,8.10
2018-12-09T08:11:12.123Z,8.10
2018-12-09T08:13:39.642Z,8.10
2018-12-09T08:16:07.126Z,8.10
2018-12-09T08:18:34.638Z,8.10
2018-12-09T08:21:02.131Z,8.10
2018-12-09T08:23:29.652Z,8.10
2018-12-09T08:25:57.134Z,8.10
2018-12-09T08:28:24.656Z,8.10
2018-12-09T08:30:52.142Z,8.10
2018-12-09T08:33:19.738Z,8.10
2018-12-09T08:35:47.222Z,8.20
2018-12-09T08:38:14.709Z,8.10
2018-12-09T08:40:42.232Z,8.10
2018-12-09T08:43:09.723Z,8.20
2018-12-09T08:45:37.238Z,8.20
2018-12-09T08:48:04.746Z,8.20
2018-12-09T08:50:32.470Z,8.20
2018-12-09T08:52:59.962Z,8.20
2018-12-09T08:55:27.478Z,8.20
2018-12-09T08:57:54.978Z,8.10
2018-12-09T09:00:22.499Z,8.10
2018-12-09T09:02:49.999Z,8.10
2018-12-09T09:05:17.518Z,8.00
2018-12-09T09:07:45.011Z,8.00
2018-12-09T09:10:12.534Z,8.00
2018-12-09T09:12:40.026Z,8.10
2018-12-09T09:15:07.620Z,8.10
2018-12-09T09:17:35.106Z,8.20
2018-12-09T09:20:03.098Z,8.30
2018-12-09T09:22:30.590Z,8.30
2018-12-09T09:24:58.106Z,8.40
2018-12-09T09:27:25.679Z,8.50
2018-12-09T09:29:53.198Z,8.50
2018-12-09T09:32:20.691Z,8.50
2018-12-09T09:34:48.206Z,8.50
2018-12-09T09:37:15.690Z,8.50
2018-12-09T09:39:43.215Z,8.50
2018-12-09T09:42:10.710Z,8.50
2018-12-09T09:44:38.202Z,8.40
2018-12-09T09:47:05.803Z,8.40
2018-12-09T09:49:33.294Z,8.40
2018-12-09T09:52:00.810Z,8.40
2018-12-09T09:54:28.297Z,8.40
2018-12-09T09:56:55.814Z,8.40
2018-12-09T09:59:23.306Z,8.40
2018-12-09T10:01:50.822Z,8.40
2018-12-09T10:04:18.306Z,8.40
2018-12-09T10:06:45.823Z,8.40
2018-12-09T10:09:13.315Z,8.40
2018-12-09T10:11:40.834Z,8.50
2018-12-09T10:14:08.326Z,8.60
2018-12-09T10:16:35.854Z,8.60
2018-12-09T10:19:03.342Z,8.50
2018-12-09T10:21:30.827Z,8.60
2018-12-09T10:23:58.343Z,8.60
2018-12-09T10:26:25.838Z,8.60
2018-12-09T10:28:53.355Z,8.60
2018-12-09T10:31:20.923Z,8.60
2018-12-09T10:33:49.584Z,8.60
2018-12-09T10:36:17.342Z,8.50
2018-12-09T10:38:44.853Z,8.60
2018-12-09T10:41:12.342Z,8.70
2018-12-09T10:43:39.863Z,8.70
2018-12-09T10:46:07.428Z,8.80
2018-12-09T10:48:34.942Z,8.80
2018-12-09T10:51:02.430Z,8.90
2018-12-09T10:53:29.958Z,8.80
2018-12-09T10:55:57.446Z,8.80
2018-12-09T10:58:24.938Z,9.00
2018-12-09T11:00:54.439Z,9.00
2018-12-09T11:03:21.939Z,9.00
2018-12-09T11:05:49.454Z,8.90
2018-12-09T11:08:16.951Z,8.80
2018-12-09T11:10:44.471Z,8.80
2018-12-09T11:13:11.967Z,8.80
2018-12-09T11:15:39.491Z,8.90
2018-12-09T11:18:06.974Z,8.90
2018-12-09T11:20:34.499Z,8.90
2018-12-09T11:23:01.990Z,8.90
2018-12-09T11:25:29.506Z,8.90
2018-12-09T11:27:56.999Z,8.90
2018-12-09T11:30:24.523Z,8.90
2018-12-09T11:32:52.010Z,9.00
2018-12-09T11:35:19.526Z,8.90
2018-12-09T11:37:47.020Z,8.90
2018-12-09T11:40:14.535Z,8.90
2018-12-09T11:42:42.017Z,9.10
2018-12-09T11:45:09.530Z,9.20
2018-12-09T11:47:37.018Z,9.30
2018-12-09T11:50:06.815Z,9.40
2018-12-09T11:52:34.307Z,9.30
2018-12-09T11:55:01.822Z,9.30
2018-12-09T11:57:29.315Z,9.10
2018-12-09T11:59:56.841Z,9.00
2018-12-09T12:02:24.334Z,8.90
2018-12-09T12:04:51.855Z,8.80
2018-12-09T12:07:19.338Z,8.70
2018-12-09T12:09:46.854Z,8.70
2018-12-09T12:12:14.343Z,8.70
2018-12-09T12:14:41.863Z,8.60
2018-12-09T12:17:09.351Z,8.60
2018-12-09T12:19:36.866Z,8.60
2018-12-09T12:22:04.361Z,8.60
2018-12-09T12:24:31.887Z,8.50
2018-12-09T12:26:59.450Z,8.50
2018-12-09T12:29:26.938Z,8.50
2018-12-09T12:31:54.627Z,8.50
2018-12-09T12:34:22.118Z,8.40
2018-12-09T12:36:49.639Z,8.40
2018-12-09T12:39:17.253Z,8.40
2018-12-09T12:41:44.835Z,8.50
2018-12-09T12:44:12.320Z,8.50
2018-12-09T12:46:39.830Z,8.50
2018-12-09T12:49:07.315Z,8.40
2018-12-09T12:51:34.840Z,8.40
2018-12-09T12:54:02.478Z,8.30
2018-12-09T12:56:29.998Z,8.30
2018-12-09T12:58:57.482Z,8.30
2018-12-09T13:01:24.998Z,8.30
2018-12-09T13:03:52.490Z,8.20
2018-12-09T13:06:20.390Z,8.10
2018-12-09T13:08:47.874Z,8.00
2018-12-09T13:11:15.395Z,7.90
2018-12-09T13:13:42.887Z,7.80
2018-12-09T13:16:10.440Z,7.70
2018-12-09T13:18:38.023Z,7.70
2018-12-09T13:21:05.510Z,7.70
2018-12-09T13:23:33.102Z,7.60
2018-12-09T13:26:00.751Z,7.60
2018-12-09T13:28:28.270Z,7.60
2018-12-09T13:30:55.764Z,7.60
2018-12-09T13:33:23.287Z,7.60
2018-12-09T13:35:50.777Z,7.60
2018-12-09T13:38:18.298Z,7.60
2018-12-09T13:40:45.783Z,7.70
2018-12-09T13:43:13.302Z,7.60
2018-12-09T13:45:40.809Z,7.60
2018-12-09T13:48:08.606Z,7.70
2018-12-09T13:50:36.174Z,7.70
2018-12-09T13:53:03.691Z,7.70
2018-12-09T13:55:31.188Z,7.70
2018-12-09T13:57:58.702Z,7.70
2018-12-09T14:00:26.195Z,7.80
2018-12-09T14:02:53.718Z,7.80
2018-12-09T14:05:21.364Z,7.90
2018-12-09T14:07:48.877Z,8.00
2018-12-09T14:10:16.375Z,8.10
2018-12-09T14:12:43.970Z,8.20
2018-12-09T14:15:11.463Z,8.30
2018-12-09T14:17:38.982Z,8.30
2018-12-09T14:20:07.074Z,8.30
2018-12-09T14:22:34.596Z,8.30
2018-12-09T14:25:02.163Z,8.20
2018-12-09T14:27:29.802Z,8.20
2018-12-09T14:29:57.290Z,8.20
2018-12-09T14:32:24.802Z,8.20
2018-12-09T14:34:52.295Z,8.10
2018-12-09T14:37:20.061Z,8.10
2018-12-09T14:39:47.628Z,8.00
2018-12-09T14:42:15.122Z,8.00
2018-12-09T14:44:42.639Z,7.90
2018-12-09T14:47:10.122Z,7.90
2018-12-09T14:49:37.646Z,7.90
2018-12-09T14:52:05.144Z,7.80
2018-12-09T14:54:32.658Z,7.80
2018-12-09T14:57:00.155Z,7.80
2018-12-09T14:59:27.674Z,7.80
2018-12-09T15:01:55.167Z,7.80
2018-12-09T15:04:22.683Z,7.70
2018-12-09T15:06:50.167Z,7.70
2018-12-09T15:09:17.687Z,7.60
2018-12-09T15:11:45.180Z,7.50
2018-12-09T15:14:12.699Z,7.50
2018-12-09T15:16:40.189Z,7.40
2018-12-09T15:19:07.707Z,7.40
2018-12-09T15:21:35.196Z,7.30
2018-12-09T15:24:02.791Z,7.30
2018-12-09T15:26:30.274Z,7.30
2018-12-09T15:28:57.795Z,7.30
2018-12-09T15:31:25.287Z,7.20
2018-12-09T15:33:52.807Z,7.30
2018-12-09T15:36:20.308Z,7.20
2018-12-09T15:38:47.835Z,7.30
2018-12-09T15:41:15.338Z,7.30
2018-12-09T15:43:42.835Z,7.30
2018-12-09T15:46:10.350Z,7.30
2018-12-09T15:48:37.923Z,7.20
2018-12-09T15:51:05.719Z,7.20
2018-12-09T15:53:33.202Z,7.20
2018-12-09T15:56:00.723Z,7.20
2018-12-09T15:58:28.221Z,7.20
2018-12-09T16:00:56.110Z,7.20
2018-12-09T16:03:23.606Z,7.10
2018-12-09T16:05:51.128Z,7.00
2018-12-09T16:08:18.619Z,7.00
2018-12-09T16:10:46.137Z,7.00
2018-12-09T16:13:13.636Z,7.00
2018-12-09T16:15:41.155Z,6.90
2018-12-09T16:18:08.647Z,6.90
2018-12-09T16:20:36.234Z,6.90
2018-12-09T16:23:03.722Z,6.90
2018-12-09T16:25:31.238Z,7.00
2018-12-09T16:27:58.732Z,6.90
2018-12-09T16:30:26.251Z,6.90
2018-12-09T16:32:53.738Z,6.90
2018-12-09T16:35:21.330Z,6.90
2018-12-09T16:37:48.862Z,6.90
2018-12-09T16:40:16.392Z,7.00
2018-12-09T16:42:43.886Z,6.90
2018-12-09T16:45:11.491Z,6.90
2018-12-09T16:47:38.986Z,7.00
2018-12-09T16:50:06.584Z,7.00
2018-12-09T16:52:34.069Z,6.90
2018-12-09T16:55:01.565Z,6.90
2018-12-09T16:57:29.083Z,6.90
2018-12-09T16:59:56.566Z,6.90
2018-12-09T17:02:24.092Z,6.90
2018-12-09T17:04:51.574Z,7.00
2018-12-09T17:07:19.098Z,7.00
2018-12-09T17:09:46.591Z,7.00
2018-12-09T17:12:14.114Z,7.00
2018-12-09T17:14:41.599Z,7.00
2018-12-09T17:17:09.114Z,7.00
2018-12-09T17:19:37.768Z,7.00
2018-12-09T17:22:05.622Z,7.00
2018-12-09T17:24:33.114Z,7.00
2018-12-09T17:27:00.602Z,7.10
2018-12-09T17:29:28.115Z,7.10
2018-12-09T17:31:55.611Z,7.10
2018-12-09T17:34:23.134Z,7.10
2018-12-09T17:36:50.631Z,7.10
2018-12-09T17:39:18.146Z,7.10
2018-12-09T17:41:45.634Z,7.00
2018-12-09T17:44:13.155Z,7.10
2018-12-09T17:46:40.644Z,7.10
2018-12-09T17:49:08.163Z,7.10
2018-12-09T17:51:35.650Z,7.10
2018-12-09T17:54:03.177Z,7.10
2018-12-09T17:56:30.667Z,7.10
2018-12-09T17:58:58.188Z,7.00
2018-12-09T18:01:25.669Z,7.00
2018-12-09T18:03:53.262Z,6.90
2018-12-09T18:06:20.751Z,6.90
2018-12-09T18:08:48.266Z,6.90
2018-12-09T18:11:15.834Z,6.80
2018-12-09T18:13:43.357Z,6.80
2018-12-09T18:16:10.878Z,6.70
2018-12-09T18:18:38.447Z,6.80
2018-12-09T18:21:05.963Z,6.70
2018-12-09T18:23:33.455Z,6.70
2018-12-09T18:26:02.060Z,6.60
2018-12-09T18:28:29.788Z,6.60
2018-12-09T18:30:57.854Z,6.60
2018-12-09T18:33:25.483Z,6.60
2018-12-09T18:35:53.003Z,6.60
2018-12-09T18:38:20.959Z,6.50
2018-12-09T18:40:48.470Z,6.50
2018-12-09T18:43:15.963Z,6.50
2018-12-09T18:45:43.483Z,6.60
2018-12-09T18:48:10.971Z,6.60
2018-12-09T18:50:39.062Z,6.60
2018-12-09T18:53:06.693Z,6.60
2018-12-09T18:55:34.210Z,6.70
2018-12-09T18:58:01.702Z,6.70
2018-12-09T19:00:29.227Z,6.70
2018-12-09T19:02:56.719Z,6.70
2018-12-09T19:05:24.243Z,6.70
2018-12-09T19:07:51.802Z,6.70
2018-12-09T19:10:19.338Z,6.70
2018-12-09T19:12:46.823Z,6.70
2018-12-09T19:15:14.311Z,6.80
2018-12-09T19:17:41.827Z,6.80
2018-12-09T19:20:09.322Z,6.80
2018-12-09T19:22:36.838Z,6.80
2018-12-09T19:25:05.078Z,6.80
2018-12-09T19:27:32.594Z,6.80
2018-12-09T19:30:00.089Z,6.80
2018-12-09T19:32:27.604Z,6.80
2018-12-09T19:34:55.096Z,6.80
2018-12-09T19:37:22.615Z,6.80
2018-12-09T19:39:50.098Z,6.90
2018-12-09T19:42:17.875Z,6.90
2018-12-09T19:44:45.637Z,6.90
2018-12-09T19:47:13.151Z,6.90
2018-12-09T19:49:40.666Z,6.90
2018-12-09T19:52:08.155Z,6.90
2018-12-09T19:54:36.092Z,6.90
2018-12-09T19:57:03.594Z,6.90
2018-12-09T19:59:31.208Z,7.00
2018-12-09T20:01:58.738Z,6.90
2018-12-09T20:04:26.256Z,7.00
2018-12-09T20:06:53.755Z,7.00
2018-12-09T20:09:21.283Z,7.00
2018-12-09T20:11:48.770Z,7.00
2018-12-09T20:14:16.286Z,7.00
2018-12-09T20:16:43.783Z,7.00
2018-12-09T20:19:11.371Z,7.00
2018-12-09T20:21:38.865Z,7.00
2018-12-09T20:24:06.395Z,7.00
2018-12-09T20:26:33.886Z,7.00
2018-12-09T20:29:01.416Z,7.00
2018-12-09T20:31:28.910Z,7.10
2018-12-09T20:33:56.394Z,7.10
2018-12-09T20:36:23.996Z,7.10
2018-12-09T20:38:51.487Z,7.10
2018-12-09T20:41:19.000Z,7.10
2018-12-09T20:43:46.493Z,7.10
2018-12-09T20:46:14.017Z,7.10
2018-12-09T20:48:41.511Z,7.10
2018-12-09T20:51:09.030Z,7.10
2018-12-09T20:53:36.519Z,7.10
2018-12-09T20:56:04.036Z,7.10
2018-12-09T20:58:31.521Z,7.00
2018-12-09T21:00:59.041Z,7.00
2018-12-09T21:03:26.611Z,7.00
2018-12-09T21:05:54.131Z,7.00
2018-12-09T21:08:21.614Z,7.00
2018-12-09T21:10:49.147Z,7.00
2018-12-09T21:13:16.630Z,7.00
2018-12-09T21:15:44.122Z,7.00
2018-12-09T21:18:11.644Z,7.00
2018-12-09T21:20:39.135Z,7.00
2018-12-09T21:23:06.656Z,7.00
2018-12-09T21:25:34.142Z,7.00
2018-12-09T21:28:01.659Z,7.00
2018-12-09T21:30:29.155Z,7.00
2018-12-09T21:32:56.665Z,7.00
2018-12-09T21:35:24.240Z,7.10
2018-12-09T21:37:51.775Z,7.00
2018-12-09T21:40:19.267Z,7.10
2018-12-09T21:42:46.791Z,7.10
2018-12-09T21:45:14.278Z,7.10
2018-12-09T21:47:41.799Z,7.10
2018-12-09T21:50:09.287Z,7.00
2018-12-09T21:52:36.807Z,7.00
2018-12-09T21:55:04.883Z,7.00
2018-12-09T21:57:32.402Z,7.00
2018-12-09T21:59:59.887Z,7.00
2018-12-09T22:02:27.407Z,7.00
2018-12-09T22:04:54.899Z,7.00
2018-12-09T22:07:22.423Z,7.00
2018-12-09T22:09:49.918Z,7.00
2018-12-09T22:12:17.439Z,7.00
2018-12-09T22:14:44.930Z,7.00
2018-12-09T22:17:12.452Z,7.00
2018-12-09T22:19:39.938Z,7.00
2018-12-09T22:22:07.459Z,7.00
2018-12-09T22:24:34.943Z,7.00
2018-12-09T22:27:02.463Z,6.90
2018-12-09T22:29:29.956Z,6.90
2018-12-09T22:31:57.474Z,6.90
2018-12-09T22:34:24.967Z,6.90
2018-12-09T22:36:52.482Z,6.90
2018-12-09T22:39:19.975Z,6.80
2018-12-09T22:41:47.472Z,6.80
2018-12-09T22:44:14.986Z,6.80
2018-12-09T22:46:42.474Z,6.70
2018-12-09T22:49:09.995Z,6.70
2018-12-09T22:51:37.491Z,6.70
2018-12-09T22:54:05.017Z,6.60
2018-12-09T22:56:32.502Z,6.60
2018-12-09T22:59:00.023Z,6.60
2018-12-09T23:01:27.514Z,6.60
2018-12-09T23:03:55.038Z,6.60
2018-12-09T23:06:22.607Z,6.60
2018-12-09T23:08:50.131Z,6.50
2018-12-09T23:11:17.627Z,6.50
2018-12-09T23:13:45.151Z,6.40
2018-12-09T23:16:12.642Z,6.40
2018-12-09T23:18:40.158Z,6.40
2018-12-09T23:21:07.652Z,6.30
2018-12-09T23:23:35.143Z,6.30
2018-12-09T23:26:02.670Z,6.30
2018-12-09T23:28:30.158Z,6.30
2018-12-09T23:30:58.003Z,6.30
2018-12-09T23:33:25.543Z,6.20
2018-12-09T23:35:53.135Z,6.20
2018-12-09T23:38:20.627Z,6.20
2018-12-09T23:40:48.142Z,6.20
2018-12-09T23:43:15.631Z,6.10
2018-12-09T23:45:43.162Z,6.10
2018-12-09T23:48:10.665Z,6.10
2018-12-09T23:50:38.189Z,6.00
2018-12-09T23:53:05.679Z,6.00
2018-12-09T23:55:33.193Z,6.00
2018-12-09T23:58:00.679Z,6.00
